sensor_id;sensor_type;location;lat;lon;timestamp;temperature;humidity
43862;DHT22;29510;52.140;5.034;2022-12-10T00:02:12;0.30;99.90
43862;DHT22;29510;52.140;5.034;2022-12-10T00:12:13;0.20;99.90
43862;DHT22;29510;52.140;5.034;2022-12-10T00:22:14;0.10;99.90
43862;DHT22;29510;52.140;5.034;2022-12-10T00:32:15;0.20;99.90
43862;DHT22;29510;52.140;5.034;2022-12-10T00:42:16;0.00;99.90
43862;DHT22;29510;52.140;5.034;2022-12-10T00:52:17;-0.10;99.90
43862;DHT22;29510;52.140;5.034;2022-12-10T01:02:18;-0.10;99.90
43862;DHT22;29510;52.140;5.034;2022-12-10T01:12:19;-0.10;99.90
43862;DHT22;29510;52.140;5.034;2022-12-10T01:22:20;-0.20;99.90
43862;DHT22;29510;52.140;5.034;2022-12-10T01:32:22;-0.10;99.90
43862;DHT22;29510;52.140;5.034;2022-12-10T01:42:23;-0.10;99.90
43862;DHT22;29510;52.140;5.034;2022-12-10T01:52:24;-0.10;99.90
43862;DHT22;29510;52.140;5.034;2022-12-10T02:02:42;-0.10;99.90
43862;DHT22;29510;52.140;5.034;2022-12-10T02:12:51;0.10;99.90
43862;DHT22;29510;52.140;5.034;2022-12-10T02:22:58;0.00;99.90
43862;DHT22;29510;52.140;5.034;2022-12-10T02:33:04;0.10;99.90
43862;DHT22;29510;52.140;5.034;2022-12-10T02:43:07;0.10;99.90
43862;DHT22;29510;52.140;5.034;2022-12-10T02:53:09;0.10;99.90
43862;DHT22;29510;52.140;5.034;2022-12-10T03:13:16;0.30;99.90
43862;DHT22;29510;52.140;5.034;2022-12-10T03:23:19;0.10;99.90
43862;DHT22;29510;52.140;5.034;2022-12-10T03:33:20;0.10;99.90
43862;DHT22;29510;52.140;5.034;2022-12-10T03:43:21;-0.10;99.90
43862;DHT22;29510;52.140;5.034;2022-12-10T03:53:23;0.00;99.90
43862;DHT22;29510;52.140;5.034;2022-12-10T04:03:24;0.10;99.90
43862;DHT22;29510;52.140;5.034;2022-12-10T04:13:25;-0.10;99.90
43862;DHT22;29510;52.140;5.034;2022-12-10T04:23:44;-0.20;99.90
43862;DHT22;29510;52.140;5.034;2022-12-10T04:34:04;-0.20;99.90
43862;DHT22;29510;52.140;5.034;2022-12-10T04:44:05;-0.10;99.90
43862;DHT22;29510;52.140;5.034;2022-12-10T04:54:07;-0.30;99.90
43862;DHT22;29510;52.140;5.034;2022-12-10T05:04:10;-0.20;99.90
43862;DHT22;29510;52.140;5.034;2022-12-10T05:14:13;-0.30;99.90
43862;DHT22;29510;52.140;5.034;2022-12-10T05:24:16;-0.40;99.90
43862;DHT22;29510;52.140;5.034;2022-12-10T05:34:18;-0.40;99.90
43862;DHT22;29510;52.140;5.034;2022-12-10T05:44:19;-0.40;99.90
43862;DHT22;29510;52.140;5.034;2022-12-10T05:54:20;-0.30;99.90
43862;DHT22;29510;52.140;5.034;2022-12-10T06:04:21;-0.20;99.90
43862;DHT22;29510;52.140;5.034;2022-12-10T06:14:22;-0.30;99.90
43862;DHT22;29510;52.140;5.034;2022-12-10T06:24:23;-0.30;99.90
43862;DHT22;29510;52.140;5.034;2022-12-10T06:34:24;-0.20;99.90
43862;DHT22;29510;52.140;5.034;2022-12-10T06:44:25;-0.30;99.90
43862;DHT22;29510;52.140;5.034;2022-12-10T06:54:26;-0.10;99.90
43862;DHT22;29510;52.140;5.034;2022-12-10T07:04:28;-0.20;99.90
43862;DHT22;29510;52.140;5.034;2022-12-10T07:14:29;-0.30;99.90
43862;DHT22;29510;52.140;5.034;2022-12-10T07:24:30;-0.30;99.90
43862;DHT22;29510;52.140;5.034;2022-12-10T07:34:31;-0.20;99.90
43862;DHT22;29510;52.140;5.034;2022-12-10T07:44:32;-0.20;99.90
43862;DHT22;29510;52.140;5.034;2022-12-10T07:54:33;-0.30;99.90
43862;DHT22;29510;52.140;5.034;2022-12-10T08:04:34;-0.40;99.90
43862;DHT22;29510;52.140;5.034;2022-12-10T08:14:35;-0.30;99.90
43862;DHT22;29510;52.140;5.034;2022-12-10T08:24:36;-0.30;99.90
43862;DHT22;29510;52.140;5.034;2022-12-10T08:34:37;-0.20;99.90
43862;DHT22;29510;52.140;5.034;2022-12-10T08:44:38;-0.20;99.90
43862;DHT22;29510;52.140;5.034;2022-12-10T08:54:39;-0.10;99.90
43862;DHT22;29510;52.140;5.034;2022-12-10T09:04:40;-0.20;99.90
43862;DHT22;29510;52.140;5.034;2022-12-10T09:14:43;-0.20;99.90
43862;DHT22;29510;52.140;5.034;2022-12-10T09:24:44;-0.50;99.90
43862;DHT22;29510;52.140;5.034;2022-12-10T09:34:45;-0.30;99.90
43862;DHT22;29510;52.140;5.034;2022-12-10T09:44:53;-0.30;99.90
43862;DHT22;29510;52.140;5.034;2022-12-10T09:55:04;-0.20;99.90
43862;DHT22;29510;52.140;5.034;2022-12-10T10:15:13;-0.30;99.90
43862;DHT22;29510;52.140;5.034;2022-12-10T10:25:17;-0.20;99.90
43862;DHT22;29510;52.140;5.034;2022-12-10T10:35:34;-0.10;99.90
43862;DHT22;29510;52.140;5.034;2022-12-10T10:45:43;-0.10;99.90
43862;DHT22;29510;52.140;5.034;2022-12-10T10:55:48;-0.10;99.90
43862;DHT22;29510;52.140;5.034;2022-12-10T11:05:49;-0.10;99.90
43862;DHT22;29510;52.140;5.034;2022-12-10T11:46:55;-0.10;99.90
43862;DHT22;29510;52.140;5.034;2022-12-10T11:57:03;-0.10;99.90
43862;DHT22;29510;52.140;5.034;2022-12-10T12:07:29;0.00;99.90
43862;DHT22;29510;52.140;5.034;2022-12-10T12:17:42;0.00;99.90
43862;DHT22;29510;52.140;5.034;2022-12-10T12:27:48;0.10;99.90
43862;DHT22;29510;52.140;5.034;2022-12-10T12:38:01;0.00;99.90
43862;DHT22;29510;52.140;5.034;2022-12-10T12:59:02;0.00;99.90
43862;DHT22;29510;52.140;5.034;2022-12-10T13:29:26;0.10;99.90
43862;DHT22;29510;52.140;5.034;2022-12-10T13:39:34;0.20;99.90
43862;DHT22;29510;52.140;5.034;2022-12-10T13:49:58;0.10;99.90
43862;DHT22;29510;52.140;5.034;2022-12-10T14:00:16;0.20;99.90
43862;DHT22;29510;52.140;5.034;2022-12-10T14:10:30;0.20;99.90
43862;DHT22;29510;52.140;5.034;2022-12-10T14:20:32;0.20;99.90
43862;DHT22;29510;52.140;5.034;2022-12-10T14:30:46;0.30;99.90
43862;DHT22;29510;52.140;5.034;2022-12-10T14:40:47;0.30;99.90
43862;DHT22;29510;52.140;5.034;2022-12-10T14:50:49;0.30;99.90
43862;DHT22;29510;52.140;5.034;2022-12-10T15:00:50;0.30;99.90
43862;DHT22;29510;52.140;5.034;2022-12-10T15:10:55;0.40;99.90
43862;DHT22;29510;52.140;5.034;2022-12-10T15:21:13;0.40;99.90
43862;DHT22;29510;52.140;5.034;2022-12-10T15:51:53;0.50;99.90
43862;DHT22;29510;52.140;5.034;2022-12-10T16:01:54;0.50;99.90
43862;DHT22;29510;52.140;5.034;2022-12-10T16:11:55;0.50;99.90
43862;DHT22;29510;52.140;5.034;2022-12-10T16:21:56;0.60;99.90
43862;DHT22;29510;52.140;5.034;2022-12-10T16:31:57;0.60;99.90
43862;DHT22;29510;52.140;5.034;2022-12-10T16:41:58;0.50;99.90
43862;DHT22;29510;52.140;5.034;2022-12-10T16:51:59;0.70;99.90
43862;DHT22;29510;52.140;5.034;2022-12-10T17:02:00;0.70;99.90
43862;DHT22;29510;52.140;5.034;2022-12-10T17:12:01;0.70;99.90
43862;DHT22;29510;52.140;5.034;2022-12-10T17:22:03;0.80;99.90
43862;DHT22;29510;52.140;5.034;2022-12-10T17:32:06;0.80;99.90
43862;DHT22;29510;52.140;5.034;2022-12-10T17:42:08;0.90;99.90
43862;DHT22;29510;52.140;5.034;2022-12-10T17:52:09;0.90;99.90
43862;DHT22;29510;52.140;5.034;2022-12-10T18:02:10;0.80;99.90
43862;DHT22;29510;52.140;5.034;2022-12-10T18:12:11;0.90;99.90
43862;DHT22;29510;52.140;5.034;2022-12-10T18:22:12;0.90;99.90
43862;DHT22;29510;52.140;5.034;2022-12-10T18:32:13;0.90;99.90
43862;DHT22;29510;52.140;5.034;2022-12-10T18:42:14;1.00;99.90
43862;DHT22;29510;52.140;5.034;2022-12-10T18:52:16;1.10;99.90
43862;DHT22;29510;52.140;5.034;2022-12-10T19:02:17;1.10;99.90
43862;DHT22;29510;52.140;5.034;2022-12-10T19:12:18;1.10;99.90
43862;DHT22;29510;52.140;5.034;2022-12-10T19:22:19;1.20;99.90
43862;DHT22;29510;52.140;5.034;2022-12-10T19:32:20;1.20;99.90
43862;DHT22;29510;52.140;5.034;2022-12-10T19:42:22;1.20;99.90
43862;DHT22;29510;52.140;5.034;2022-12-10T19:52:23;1.20;99.90
43862;DHT22;29510;52.140;5.034;2022-12-10T20:02:24;1.20;99.90
43862;DHT22;29510;52.140;5.034;2022-12-10T20:12:25;1.10;99.90
43862;DHT22;29510;52.140;5.034;2022-12-10T20:22:26;1.20;99.90
43862;DHT22;29510;52.140;5.034;2022-12-10T20:32:27;1.20;99.90
43862;DHT22;29510;52.140;5.034;2022-12-10T20:42:28;1.20;99.90
43862;DHT22;29510;52.140;5.034;2022-12-10T20:52:29;1.30;99.90
43862;DHT22;29510;52.140;5.034;2022-12-10T21:02:30;1.30;99.90
43862;DHT22;29510;52.140;5.034;2022-12-10T21:12:31;1.30;99.90
43862;DHT22;29510;52.140;5.034;2022-12-10T21:22:32;1.40;99.90
43862;DHT22;29510;52.140;5.034;2022-12-10T21:32:33;1.50;99.90
43862;DHT22;29510;52.140;5.034;2022-12-10T21:42:34;1.50;99.90
43862;DHT22;29510;52.140;5.034;2022-12-10T21:52:54;1.60;99.90
43862;DHT22;29510;52.140;5.034;2022-12-10T22:02:55;1.60;99.90
43862;DHT22;29510;52.140;5.034;2022-12-10T22:12:56;1.60;99.90
43862;DHT22;29510;52.140;5.034;2022-12-10T22:22:57;1.60;99.90
43862;DHT22;29510;52.140;5.034;2022-12-10T22:32:58;1.60;99.90
43862;DHT22;29510;52.140;5.034;2022-12-10T22:42:59;1.60;99.90
43862;DHT22;29510;52.140;5.034;2022-12-10T22:53:00;1.70;99.90
43862;DHT22;29510;52.140;5.034;2022-12-10T23:03:01;1.80;99.90
43862;DHT22;29510;52.140;5.034;2022-12-10T23:13:02;1.70;99.90
43862;DHT22;29510;52.140;5.034;2022-12-10T23:23:06;1.70;99.90
43862;DHT22;29510;52.140;5.034;2022-12-10T23:33:07;1.80;99.90
43862;DHT22;29510;52.140;5.034;2022-12-10T23:43:10;1.70;99.90
43862;DHT22;29510;52.140;5.034;2022-12-10T23:53:11;1.70;99.90
